Time;durP1;ratioP1;P1;durP2;ratioP2;P2;SDS_P1;SDS_P2;PMS_P1;PMS_P2;Temp;Humidity;BMP_temperature;BMP_pressure;BME280_temperature;BME280_humidity;BME280_pressure;Samples;Min_cycle;Max_cycle;Signal;HPM_P1;HPM_P2
2023/06/21 00:00:28;;;;;;;38.55;30.73;;;;;;;18.19;100.00;101022.59;5012489;28;20041;-50
2023/06/21 00:02:54;;;;;;;35.08;27.98;;;;;;;18.39;100.00;101046.22;4978030;28;20076;-50
2023/06/21 00:05:19;;;;;;;33.75;28.95;;;;;;;18.37;100.00;101049.94;5011631;28;20088;-51
2023/06/21 00:07:47;;;;;;;30.40;27.05;;;;;;;17.95;100.00;100981.44;5012169;28;20464;-48
2023/06/21 00:10:12;;;;;;;32.88;28.27;;;;;;;18.38;100.00;101041.84;4995429;28;20038;-49
2023/06/21 00:12:38;;;;;;;36.50;30.27;;;;;;;17.84;100.00;100958.16;4993538;28;20088;-48
2023/06/21 00:15:04;;;;;;;32.15;27.50;;;;;;;17.83;100.00;100961.75;5011989;28;20046;-47
2023/06/21 00:17:29;;;;;;;34.10;29.83;;;;;;;18.26;100.00;101039.94;4990968;28;20033;-49
2023/06/21 00:19:56;;;;;;;38.53;31.45;;;;;;;17.81;100.00;100973.44;5010024;28;20117;-47
2023/06/21 00:22:22;;;;;;;38.47;30.85;;;;;;;18.23;100.00;101042.78;5011912;28;20113;-49
2023/06/21 00:24:48;;;;;;;37.35;31.98;;;;;;;17.85;100.00;100978.50;4994819;28;20442;-50
2023/06/21 00:27:14;;;;;;;39.80;31.42;;;;;;;18.18;100.00;101047.53;5012416;28;20026;-50
2023/06/21 00:29:39;;;;;;;38.42;31.60;;;;;;;18.17;100.00;101063.59;5012017;28;20404;-48
2023/06/21 00:32:05;;;;;;;36.13;31.40;;;;;;;18.15;100.00;101068.19;5012043;28;20046;-48
2023/06/21 00:34:30;;;;;;;36.25;30.40;;;;;;;18.14;100.00;101069.13;5011363;28;20038;-52
2023/06/21 00:36:55;;;;;;;40.47;30.33;;;;;;;18.10;100.00;101081.75;5011796;28;20057;-54
2023/06/21 00:39:21;;;;;;;37.65;29.38;;;;;;;18.07;100.00;101081.94;5015467;28;20029;-50
2023/06/21 00:41:47;;;;;;;41.97;30.48;;;;;;;17.63;100.00;101017.16;5016107;28;20193;-50
2023/06/21 00:44:13;;;;;;;35.92;29.55;;;;;;;18.03;100.00;101088.41;4998481;28;20034;-50
2023/06/21 00:46:39;;;;;;;36.58;30.25;;;;;;;17.62;100.00;101026.06;5015981;28;20061;-51
2023/06/21 00:49:04;;;;;;;36.85;28.02;;;;;;;17.64;100.00;101026.84;5015441;28;20030;-50
2023/06/21 00:51:32;;;;;;;34.75;30.10;;;;;;;17.88;100.00;101086.66;4997614;28;20046;-51
2023/06/21 00:53:58;;;;;;;35.95;27.95;;;;;;;17.54;100.00;101042.47;4998846;28;20440;-47
2023/06/21 00:56:23;;;;;;;35.33;29.10;;;;;;;17.52;100.00;101055.00;5015623;28;20067;-52
2023/06/21 00:58:49;;;;;;;38.38;28.98;;;;;;;17.90;100.00;101132.69;5015256;28;20048;-50
2023/06/21 01:01:14;;;;;;;36.65;28.98;;;;;;;17.89;100.00;101137.13;5015801;28;20040;-50
2023/06/21 01:03:40;;;;;;;36.13;28.85;;;;;;;17.50;100.00;101070.19;4998207;28;20045;-48
2023/06/21 01:06:18;;;;;;;33.42;27.45;;;;;;;17.87;100.00;101123.06;4997753;28;20474;-50
2023/06/21 01:08:53;;;;;;;36.03;29.05;;;;;;;17.43;100.00;101053.72;4997149;28;20378;-48
2023/06/21 01:11:24;;;;;;;38.25;28.98;;;;;;;17.55;100.00;101084.13;5015879;28;20120;-53
2023/06/21 01:14:21;;;;;;;36.28;28.58;;;;;;;17.82;100.00;101133.13;5014054;28;20743;-50
2023/06/21 01:16:49;;;;;;;35.60;28.23;;;;;;;17.83;100.00;101128.69;4997929;28;20041;-49
2023/06/21 01:19:29;;;;;;;34.50;28.02;;;;;;;17.81;100.00;101136.72;5013859;28;20057;-50
2023/06/21 01:21:57;;;;;;;34.83;28.80;;;;;;;17.41;100.00;101076.03;4996420;28;20037;-47
2023/06/21 01:24:29;;;;;;;37.20;29.27;;;;;;;17.75;100.00;101149.53;4997859;28;20481;-48
2023/06/21 01:27:03;;;;;;;33.05;27.85;;;;;;;17.72;100.00;101144.38;5015503;28;20136;-50
2023/06/21 01:29:38;;;;;;;35.08;27.77;;;;;;;17.64;100.00;101128.84;5015366;28;20037;-49
2023/06/21 01:32:04;;;;;;;37.00;28.90;;;;;;;17.65;100.00;101146.56;4997844;28;20104;-48
2023/06/21 01:34:31;;;;;;;36.03;28.25;;;;;;;17.24;100.00;101071.69;4997430;28;20044;-48
2023/06/21 01:36:58;;;;;;;35.08;27.30;;;;;;;17.18;100.00;101061.38;4996934;28;20468;-49
2023/06/21 01:39:29;;;;;;;30.45;25.50;;;;;;;17.17;100.00;101072.97;4993388;28;20057;-46
2023/06/21 01:41:54;;;;;;;33.80;26.90;;;;;;;17.55;100.00;101132.03;4995498;28;20026;-49
2023/06/21 01:44:20;;;;;;;30.02;24.60;;;;;;;17.13;100.00;101062.59;4961559;28;20126;-46
2023/06/21 01:46:46;;;;;;;29.65;23.88;;;;;;;17.57;100.00;101134.63;4977641;28;20037;-48
2023/06/21 01:49:13;;;;;;;29.30;23.92;;;;;;;17.21;100.00;101074.50;4977331;28;20062;-53
2023/06/21 01:51:40;;;;;;;31.65;25.55;;;;;;;17.17;100.00;101072.09;4995362;28;20072;-51
2023/06/21 01:54:06;;;;;;;32.13;25.00;;;;;;;17.55;100.00;101128.50;4977514;28;20049;-52
2023/06/21 01:56:33;;;;;;;32.47;25.13;;;;;;;17.46;100.00;101127.19;4983793;28;20037;-48
2023/06/21 01:58:59;;;;;;;31.10;25.58;;;;;;;17.38;100.00;101122.31;4997275;28;20030;-48
2023/06/21 02:01:26;;;;;;;30.95;24.70;;;;;;;17.54;100.00;101143.63;5014117;28;20049;-48
2023/06/21 02:03:54;;;;;;;31.55;24.85;;;;;;;17.16;100.00;101078.38;4996787;28;20030;-49
2023/06/21 02:06:21;;;;;;;30.60;25.90;;;;;;;17.43;100.00;101133.56;5014067;28;20099;-49
2023/06/21 02:08:50;;;;;;;30.35;24.77;;;;;;;17.39;100.00;101140.00;4997142;28;20049;-53
2023/06/21 02:11:16;;;;;;;29.70;24.05;;;;;;;17.13;100.00;101100.66;4993938;28;20367;-49
2023/06/21 02:13:41;;;;;;;31.60;25.13;;;;;;;17.51;100.00;101161.56;4994643;28;20045;-48
2023/06/21 02:16:07;;;;;;;33.78;25.70;;;;;;;17.50;100.00;101165.16;4994125;28;20538;-52
2023/06/21 02:18:32;;;;;;;34.03;25.67;;;;;;;17.05;100.00;101088.72;4994457;28;20089;-51
2023/06/21 02:20:58;;;;;;;31.45;25.35;;;;;;;17.48;100.00;101164.38;4994426;28;20049;-48
2023/06/21 02:23:24;;;;;;;34.92;24.63;;;;;;;17.33;100.00;101142.16;4994595;28;20493;-52
2023/06/21 02:25:49;;;;;;;32.80;25.42;;;;;;;17.50;100.00;101162.50;4994429;28;20046;-50
2023/06/21 02:28:16;;;;;;;32.08;23.65;;;;;;;17.19;100.00;101105.66;5010933;28;20104;-50
2023/06/21 02:30:42;;;;;;;29.63;23.40;;;;;;;17.43;100.00;101157.50;4996853;28;20065;-51
2023/06/21 02:33:07;;;;;;;34.88;23.63;;;;;;;17.16;100.00;101111.13;5014280;28;20088;-52
2023/06/21 02:35:32;;;;;;;34.28;24.98;;;;;;;17.49;100.00;101164.28;5012969;28;20042;-49
2023/06/21 02:37:58;;;;;;;32.55;24.40;;;;;;;17.44;100.00;101171.69;5013962;28;20038;-51
2023/06/21 02:40:23;;;;;;;32.70;23.85;;;;;;;17.47;100.00;101181.28;5013584;28;20037;-49
2023/06/21 02:42:49;;;;;;;30.50;23.63;;;;;;;17.34;100.00;101162.47;5013299;28;20478;-49
2023/06/21 02:45:14;;;;;;;33.72;24.92;;;;;;;17.08;100.00;101118.69;5013145;28;20042;-50
2023/06/21 02:47:39;;;;;;;30.38;23.95;;;;;;;17.26;100.00;101157.59;5013629;28;20044;-50
2023/06/21 02:50:06;;;;;;;28.77;23.42;;;;;;;17.02;100.00;101118.16;5013641;28;20030;-48
2023/06/21 02:52:31;;;;;;;31.50;23.75;;;;;;;17.18;100.00;101151.81;4996174;28;20041;-48
2023/06/21 02:54:57;;;;;;;32.50;23.52;;;;;;;16.98;100.00;101119.28;5013938;28;20433;-51
2023/06/21 02:57:23;;;;;;;31.85;24.15;;;;;;;17.36;100.00;101196.06;4994752;28;20088;-50
2023/06/21 02:59:49;;;;;;;30.88;21.80;;;;;;;16.84;100.00;101104.09;5013374;28;20121;-51
2023/06/21 03:02:16;;;;;;;30.77;21.02;;;;;;;17.23;100.00;101167.53;5012636;28;20135;-52
2023/06/21 03:04:42;;;;;;;28.02;21.90;;;;;;;17.25;100.00;101190.44;5013221;28;20168;-49
2023/06/21 03:07:07;;;;;;;31.48;24.10;;;;;;;17.34;100.00;101187.28;5013274;28;20125;-47
2023/06/21 03:09:33;;;;;;;29.52;21.33;;;;;;;17.40;100.00;101202.91;5013337;28;20045;-48
2023/06/21 03:11:58;;;;;;;24.60;20.08;;;;;;;17.42;100.00;101203.69;5013135;28;20509;-50
2023/06/21 03:14:23;;;;;;;25.98;18.38;;;;;;;17.01;100.00;101137.72;4995475;28;20034;-52
2023/06/21 03:16:49;;;;;;;26.33;18.23;;;;;;;17.27;100.00;101180.59;5011927;28;20046;-49
2023/06/21 03:19:15;;;;;;;29.40;18.60;;;;;;;17.09;100.00;101156.78;4995687;28;20030;-50
2023/06/21 03:21:40;;;;;;;21.25;15.77;;;;;;;17.12;100.00;101173.44;5012942;28;20041;-50
2023/06/21 03:24:07;;;;;;;18.02;13.77;;;;;;;16.98;100.00;101143.22;5012811;28;20041;-50
2023/06/21 03:26:32;;;;;;;13.98;12.43;;;;;;;17.30;100.00;101198.19;4995549;28;20029;-49
2023/06/21 03:28:59;;;;;;;11.98;10.45;;;;;;;17.25;100.00;101192.25;5013009;28;20473;-52
2023/06/21 03:31:24;;;;;;;11.23;9.27;;;;;;;16.96;100.00;101147.75;5010295;28;20034;-52
2023/06/21 03:33:50;;;;;;;10.02;8.85;;;;;;;17.43;100.00;101237.34;5012741;28;20041;-51
2023/06/21 03:36:15;;;;;;;10.05;8.13;;;;;;;17.38;100.00;101220.78;5013017;28;20512;-52
2023/06/21 03:38:40;;;;;;;11.23;7.80;;;;;;;17.43;100.00;101226.69;5013033;28;20417;-50
2023/06/21 03:41:06;;;;;;;12.88;8.75;;;;;;;17.48;100.00;101236.25;5012855;28;20037;-48
2023/06/21 03:43:31;;;;;;;10.65;8.35;;;;;;;17.45;100.00;101237.28;5012628;28;20030;-49
2023/06/21 03:45:58;;;;;;;8.75;7.82;;;;;;;17.50;100.00;101231.69;5012774;28;20039;-51
2023/06/21 03:48:24;;;;;;;8.48;7.05;;;;;;;17.15;100.00;101170.63;5012232;28;20493;-49
2023/06/21 03:50:49;;;;;;;11.63;7.75;;;;;;;17.16;100.00;101177.63;5011548;28;20080;-51
2023/06/21 03:53:15;;;;;;;11.30;7.85;;;;;;;17.16;100.00;101182.94;5012825;28;20091;-52
2023/06/21 03:55:43;;;;;;;9.05;7.18;;;;;;;17.45;100.00;101229.28;4995300;28;20033;-51
2023/06/21 03:58:09;;;;;;;10.30;7.93;;;;;;;17.16;100.00;101185.63;4995304;28;20037;-50
2023/06/21 04:00:34;;;;;;;9.68;7.50;;;;;;;17.18;100.00;101189.06;4994576;28;20041;-49
2023/06/21 04:03:00;;;;;;;9.82;7.80;;;;;;;17.62;100.00;101253.22;5012501;28;20038;-52
2023/06/21 04:05:25;;;;;;;11.45;7.00;;;;;;;17.56;100.00;101250.03;5011602;28;20044;-49
2023/06/21 04:07:50;;;;;;;7.82;6.50;;;;;;;17.24;100.00;101202.03;5012119;28;20046;-47
2023/06/21 04:10:16;;;;;;;7.63;6.25;;;;;;;17.26;100.00;101200.16;5012210;28;20029;-50
2023/06/21 04:12:42;;;;;;;7.68;5.95;;;;;;;17.63;100.00;101264.72;5013298;28;20087;-48
2023/06/21 04:15:08;;;;;;;7.38;5.68;;;;;;;17.65;100.00;101263.69;4998797;28;20109;-49
2023/06/21 04:17:33;;;;;;;7.15;5.28;;;;;;;17.72;100.00;101267.72;5015986;28;20137;-50
2023/06/21 04:19:59;;;;;;;8.27;5.28;;;;;;;17.75;100.00;101272.88;4999055;28;20026;-48
2023/06/21 04:22:25;;;;;;;6.05;4.90;;;;;;;17.40;100.00;101204.72;5016587;28;20042;-48
2023/06/21 04:24:51;;;;;;;6.97;5.07;;;;;;;17.82;100.00;101279.59;5015422;28;20535;-51
2023/06/21 04:27:17;;;;;;;5.22;4.60;;;;;;;17.69;100.00;101254.56;5016200;28;20131;-48
2023/06/21 04:29:42;;;;;;;6.65;4.43;;;;;;;17.57;100.00;101246.44;4998566;28;20108;-51
2023/06/21 04:32:10;;;;;;;6.03;4.85;;;;;;;17.57;100.00;101235.78;5016241;28;20398;-51
2023/06/21 04:34:36;;;;;;;5.88;4.90;;;;;;;17.76;100.00;101268.41;4998479;28;20388;-49
2023/06/21 04:37:07;;;;;;;5.90;4.20;;;;;;;17.87;100.00;101280.19;5009021;28;20037;-50
2023/06/21 04:39:34;;;;;;;6.25;4.57;;;;;;;17.52;100.00;101213.81;5016184;28;20036;-49
2023/06/21 04:41:59;;;;;;;5.18;4.65;;;;;;;17.55;100.00;101209.22;5015266;28;20519;-50
2023/06/21 04:44:27;;;;;;;6.80;4.88;;;;;;;17.99;100.00;101284.84;5015619;28;20061;-54
2023/06/21 04:46:53;;;;;;;6.13;4.65;;;;;;;17.61;100.00;101216.00;5015836;28;20033;-49
2023/06/21 04:49:18;;;;;;;5.72;4.47;;;;;;;17.97;100.00;101291.19;5016371;28;20087;-48
2023/06/21 04:51:44;;;;;;;4.47;3.90;;;;;;;17.65;100.00;101226.44;5015668;28;20455;-51
2023/06/21 04:54:09;;;;;;;8.30;4.40;;;;;;;18.05;100.00;101278.31;5014322;28;20052;-51
2023/06/21 04:56:35;;;;;;;9.32;4.68;;;;;;;18.13;100.00;101292.03;5015914;28;20029;-49
2023/06/21 04:59:03;;;;;;;7.40;4.30;;;;;;;17.88;100.00;101243.78;5015836;28;20041;-51
2023/06/21 05:01:29;;;;;;;6.47;4.05;;;;;;;18.08;100.00;101274.59;5015191;28;20626;-48
2023/06/21 05:03:55;;;;;;;5.68;4.07;;;;;;;18.08;100.00;101290.59;4998070;28;20037;-49
2023/06/21 05:06:22;;;;;;;7.80;4.63;;;;;;;17.74;100.00;101235.69;5015702;28;20212;-53
2023/06/21 05:08:47;;;;;;;7.57;4.50;;;;;;;17.71;100.00;101250.06;5015407;28;20034;-49
2023/06/21 05:11:12;;;;;;;9.07;4.93;;;;;;;18.03;100.00;101322.81;5014345;28;20292;-51
2023/06/21 05:13:38;;;;;;;9.65;4.70;;;;;;;17.96;100.00;101316.97;5013865;28;20030;-53
2023/06/21 05:16:03;;;;;;;6.25;4.35;;;;;;;17.59;100.00;101265.81;5015282;28;20042;-52
2023/06/21 05:18:29;;;;;;;6.15;4.18;;;;;;;17.57;100.00;101273.03;5015035;28;20033;-51
2023/06/21 05:20:55;;;;;;;6.65;4.50;;;;;;;17.84;100.00;101322.09;5015598;28;20040;-51
2023/06/21 05:23:20;;;;;;;6.80;4.20;;;;;;;17.89;100.00;101330.72;5015060;28;20042;-51
2023/06/21 05:25:45;;;;;;;7.75;4.57;;;;;;;17.95;100.00;101322.38;5013650;28;20130;-48
2023/06/21 05:28:11;;;;;;;7.13;4.15;;;;;;;18.03;100.00;101329.94;4997449;28;20029;-49
2023/06/21 05:30:36;;;;;;;8.27;4.05;;;;;;;17.69;100.00;101261.69;5015147;28;20053;-51
2023/06/21 05:33:01;;;;;;;7.03;3.92;;;;;;;18.15;100.00;101329.28;5014871;28;20046;-50
2023/06/21 05:35:27;;;;;;;5.15;3.53;;;;;;;18.19;100.00;101322.81;5015052;28;20504;-48
2023/06/21 05:37:53;;;;;;;7.00;3.63;;;;;;;17.91;100.00;101278.22;5014851;28;20503;-50
2023/06/21 05:40:19;;;;;;;7.03;3.78;;;;;;;17.92;100.00;101275.47;5014663;28;20034;-51
2023/06/21 05:42:45;;;;;;;5.75;3.33;;;;;;;17.93;100.00;101253.22;4995212;28;20037;-51
2023/06/21 05:45:10;;;;;;;7.43;3.55;;;;;;;18.40;100.00;101319.81;4980971;28;20465;-49
2023/06/21 05:47:36;;;;;;;6.03;3.17;;;;;;;18.57;100.00;101337.53;5014975;28;20367;-48
2023/06/21 05:50:02;;;;;;;4.82;3.10;;;;;;;18.25;100.00;101270.03;4997051;28;20037;-47
2023/06/21 05:52:28;;;;;;;4.03;2.83;;;;;;;18.40;100.00;101293.16;4996736;28;20038;-49
2023/06/21 05:54:53;;;;;;;5.50;3.25;;;;;;;18.84;100.00;101337.72;4996661;28;20030;-51
2023/06/21 05:57:19;;;;;;;6.68;3.33;;;;;;;18.86;100.00;101341.16;5014460;28;20157;-51
2023/06/21 05:59:44;;;;;;;5.13;3.10;;;;;;;18.97;100.00;101355.59;4996093;28;20104;-49
2023/06/21 06:02:09;;;;;;;6.40;3.03;;;;;;;19.08;100.00;101357.63;5014745;28;20400;-49
2023/06/21 06:04:37;;;;;;;6.20;3.03;;;;;;;18.78;100.00;101290.94;5010807;28;20042;-47
2023/06/21 06:07:03;;;;;;;6.63;2.75;;;;;;;19.22;100.00;101360.34;5013858;28;20044;-52
2023/06/21 06:09:28;;;;;;;4.13;2.38;;;;;;;18.86;100.00;101293.16;4996868;28;20025;-48
2023/06/21 06:11:54;;;;;;;5.53;3.05;;;;;;;18.76;100.00;101278.66;5014124;28;20097;-49
2023/06/21 06:14:19;;;;;;;6.40;3.15;;;;;;;19.01;100.00;101324.25;4996820;28;20034;-51
2023/06/21 06:16:45;;;;;;;6.32;3.00;;;;;;;19.25;100.00;101360.16;4996818;28;20038;-49
2023/06/21 06:19:11;;;;;;;4.90;2.40;;;;;;;19.50;100.00;101395.13;5013989;28;20113;-49
2023/06/21 06:21:36;;;;;;;4.57;2.60;;;;;;;19.12;100.00;101304.94;5014197;28;20120;-49
2023/06/21 06:24:02;;;;;;;3.08;2.10;;;;;;;19.60;100.00;101388.28;5013172;28;20543;-49
2023/06/21 06:26:28;;;;;;;5.15;2.40;;;;;;;19.44;100.00;101343.94;5013938;28;20034;-48
2023/06/21 06:28:54;;;;;;;4.97;2.58;;;;;;;19.79;100.00;101388.00;5014044;28;20030;-50
2023/06/21 06:31:21;;;;;;;6.28;3.00;;;;;;;19.67;100.00;101348.72;5012605;28;20033;-47
2023/06/21 06:33:46;;;;;;;4.57;2.45;;;;;;;19.67;100.00;101340.69;4992630;28;20474;-51
2023/06/21 06:36:12;;;;;;;5.75;2.30;;;;;;;19.74;100.00;101333.13;4993782;28;20129;-50
2023/06/21 06:38:38;;;;;;;4.88;2.33;;;;;;;20.05;100.00;101370.34;5009525;28;20069;-47
2023/06/21 06:41:03;;;;;;;6.20;1.95;;;;;;;20.01;100.00;101360.78;4992642;28;20096;-47
2023/06/21 06:43:28;;;;;;;4.93;2.00;;;;;;;20.34;100.00;101419.31;4993914;28;20053;-47
2023/06/21 06:45:54;;;;;;;4.25;2.00;;;;;;;20.37;100.00;101427.16;4993675;28;20047;-49
2023/06/21 06:48:19;;;;;;;2.60;1.85;;;;;;;20.00;100.00;101357.25;4994255;28;20046;-49
2023/06/21 06:50:44;;;;;;;4.28;2.05;;;;;;;20.56;100.00;101441.91;4994124;28;20445;-49
2023/06/21 06:53:09;;;;;;;7.70;2.30;;;;;;;20.58;100.00;101445.34;4994178;28;20078;-49
2023/06/21 06:55:35;;;;;;;3.45;2.15;;;;;;;20.57;100.00;101410.69;5009056;28;20030;-48
2023/06/21 06:58:01;;;;;;;7.15;2.28;;;;;;;20.45;100.00;101374.88;4992476;28;20033;-49
2023/06/21 07:00:27;;;;;;;5.85;2.40;;;;;;;20.39;100.00;101375.28;4993642;28;20042;-51
2023/06/21 07:02:57;;;;;;;3.25;2.15;;;;;;;20.85;100.00;101434.66;4993645;28;20097;-50
2023/06/21 07:05:23;;;;;;;4.85;2.10;;;;;;;20.75;100.00;101391.59;4993961;28;20048;-49
2023/06/21 07:07:49;;;;;;;5.28;2.30;;;;;;;20.90;100.00;101397.75;4992482;28;20142;-48
2023/06/21 07:10:14;;;;;;;5.13;2.63;;;;;;;21.33;100.00;101460.03;4992063;28;20070;-50
2023/06/21 07:12:39;;;;;;;5.38;2.60;;;;;;;21.03;100.00;101406.69;4993056;28;20467;-46
2023/06/21 07:15:05;;;;;;;4.15;2.15;;;;;;;21.12;100.00;101426.66;4992749;28;20390;-47
2023/06/21 07:17:30;;;;;;;3.45;1.85;;;;;;;20.94;100.00;101390.38;4992873;28;20091;-48
2023/06/21 07:19:56;;;;;;;5.60;1.98;;;;;;;21.56;100.00;101467.38;4992414;28;20084;-49
2023/06/21 07:22:21;;;;;;;5.70;2.00;;;;;;;21.33;100.00;101410.97;4992271;28;20070;-51
2023/06/21 07:24:47;;;;;;;5.22;2.38;;;;;;;21.83;100.00;101478.84;4992002;28;20474;-51
2023/06/21 07:27:12;;;;;;;4.95;2.25;;;;;;;21.89;100.00;101491.00;4992867;28;20074;-49
2023/06/21 07:29:37;;;;;;;5.07;2.33;;;;;;;21.91;100.00;101474.81;4989256;28;20033;-50
2023/06/21 07:32:03;;;;;;;2.55;1.60;;;;;;;21.79;100.00;101418.41;4984792;28;20042;-48
2023/06/21 07:34:29;;;;;;;3.75;1.98;;;;;;;22.03;100.00;101461.44;5005593;28;20038;-50
2023/06/21 07:36:55;;;;;;;3.58;1.60;;;;;;;21.68;100.00;101394.19;5010253;28;20042;-52
2023/06/21 07:39:20;;;;;;;2.33;1.40;;;;;;;22.42;100.00;101500.66;5012648;28;20396;-47
2023/06/21 07:41:46;;;;;;;4.88;2.20;;;;;;;22.09;100.00;101431.53;5012237;28;20034;-52
2023/06/21 07:44:11;;;;;;;5.85;1.83;;;;;;;22.29;100.00;101465.81;5012442;28;20033;-51
2023/06/21 07:46:37;;;;;;;4.10;1.70;;;;;;;22.69;100.00;101490.66;5012639;28;20065;-49
2023/06/21 07:49:02;;;;;;;4.07;1.63;;;;;;;23.08;100.00;101510.19;5012087;28;20034;-46
2023/06/21 07:51:27;;;;;;;3.45;1.58;;;;;;;23.50;100.00;101517.75;4993774;28;20508;-48
2023/06/21 07:53:53;;;;;;;4.90;1.77;;;;;;;23.67;100.00;101509.25;5012685;28;20100;-48
2023/06/21 07:56:18;;;;;;;3.65;1.88;;;;;;;24.15;100.00;101509.16;5012467;28;20108;-52
2023/06/21 07:58:44;;;;;;;4.97;1.90;;;;;;;24.56;100.00;101520.19;5011205;28;20096;-52
2023/06/21 08:01:09;;;;;;;3.88;1.63;;;;;;;25.05;100.00;101530.56;5012107;28;20623;-48
2023/06/21 08:03:35;;;;;;;5.32;1.85;;;;;;;25.28;100.00;101526.81;5007759;28;20038;-47
2023/06/21 08:06:00;;;;;;;5.00;2.00;;;;;;;25.74;100.00;101534.66;5010913;28;20481;-47
2023/06/21 08:08:26;;;;;;;3.10;1.88;;;;;;;25.87;100.00;101540.69;5010721;28;20137;-46
2023/06/21 08:10:51;;;;;;;4.65;2.00;;;;;;;25.99;100.00;101546.88;5010128;28;20049;-47
2023/06/21 08:13:22;;;;;;;3.90;1.88;;;;;;;26.01;100.00;101540.38;5010600;28;20042;-48
2023/06/21 08:15:47;;;;;;;;;;;;;;;26.24;100.00;101552.75;4993151;28;20577;-47
2023/06/21 08:18:13;;;;;;;3.57;1.73;;;;;;;26.79;100.00;101564.16;4987684;28;20023;-48
2023/06/21 08:20:40;;;;;;;3.78;2.40;;;;;;;26.65;100.00;101543.72;4993496;28;20347;-47
2023/06/21 08:23:06;;;;;;;7.18;2.63;;;;;;;26.91;100.00;101530.66;5010880;28;20042;-48
2023/06/21 08:25:31;;;;;;;3.47;1.75;;;;;;;27.01;100.00;101512.59;5010670;28;20034;-48
2023/06/21 08:27:57;;;;;;;6.95;2.92;;;;;;;27.33;100.00;101569.13;5009441;28;20069;-49
2023/06/21 08:30:22;;;;;;;5.13;2.28;;;;;;;27.23;100.00;101576.38;5010707;28;20122;-50
2023/06/21 08:32:47;;;;;;;4.60;2.30;;;;;;;27.28;100.00;101572.25;5010402;28;20425;-51
2023/06/21 08:35:13;;;;;;;8.45;2.60;;;;;;;27.46;100.00;101563.50;5009688;28;20041;-48
2023/06/21 08:37:39;;;;;;;4.47;2.28;;;;;;;27.68;100.00;101569.47;5004417;28;20049;-49
2023/06/21 08:40:07;;;;;;;3.38;2.25;;;;;;;27.38;100.00;101516.34;5010364;28;20033;-52
2023/06/21 08:42:32;;;;;;;3.25;1.92;;;;;;;27.71;100.00;101571.91;5010722;28;20050;-51
2023/06/21 08:44:58;;;;;;;6.32;2.15;;;;;;;27.99;100.00;101577.47;4992950;28;20121;-51
2023/06/21 08:47:28;;;;;;;4.03;1.75;;;;;;;28.16;100.00;101569.50;5009509;28;20038;-47
2023/06/21 08:49:57;;;;;;;3.83;2.15;;;;;;;27.75;100.00;101586.00;5010826;28;20505;-49
2023/06/21 08:52:24;;;;;;;3.38;2.20;;;;;;;27.61;100.00;101584.56;5010713;28;20022;-49
2023/06/21 08:54:57;;;;;;;4.72;2.55;;;;;;;27.62;100.00;101577.31;4991312;28;20040;-49
2023/06/21 08:57:23;;;;;;;4.18;2.65;;;;;;;27.63;100.00;101577.19;4977406;28;20145;-49
2023/06/21 08:59:56;;;;;;;9.30;2.88;;;;;;;28.10;100.00;101588.16;4993499;28;20113;-46
2023/06/21 09:02:40;;;;;;;5.15;2.80;;;;;;;28.36;100.00;101597.38;4994832;28;20053;-50
2023/06/21 09:05:09;;;;;;;4.60;3.10;;;;;;;28.41;100.00;101604.03;5008701;28;20041;-48
2023/06/21 09:07:36;;;;;;;5.20;2.70;;;;;;;28.33;100.00;101557.03;4996251;28;20440;-47
2023/06/21 09:10:02;;;;;;;4.78;2.97;;;;;;;28.07;100.00;101550.56;5004246;28;20398;-48
2023/06/21 09:12:30;;;;;;;3.75;3.05;;;;;;;28.62;100.00;101613.81;5013100;28;20503;-48
2023/06/21 09:14:55;;;;;;;4.65;3.10;;;;;;;28.60;100.00;101556.25;5012653;28;20076;-47
2023/06/21 09:17:22;;;;;;;4.47;3.25;;;;;;;28.90;100.00;101597.47;5013448;28;20036;-48
2023/06/21 09:19:47;;;;;;;5.30;3.42;;;;;;;28.70;100.00;101563.34;5013979;28;20485;-49
2023/06/21 09:22:13;;;;;;;4.40;2.72;;;;;;;28.85;100.00;101550.16;5014078;28;20041;-47
2023/06/21 09:24:39;;;;;;;5.97;3.10;;;;;;;29.08;100.00;101615.66;5013696;28;20045;-47
2023/06/21 09:27:04;;;;;;;5.90;3.30;;;;;;;28.53;100.00;101561.41;5012296;28;20397;-47
2023/06/21 09:29:30;;;;;;;5.80;3.30;;;;;;;28.73;100.00;101605.53;5013626;28;20177;-46
2023/06/21 09:31:56;;;;;;;4.82;3.53;;;;;;;28.58;100.00;101561.78;5013319;28;20053;-46
2023/06/21 09:34:21;;;;;;;6.75;3.63;;;;;;;28.64;100.00;101558.53;5008825;28;20049;-46
2023/06/21 09:36:47;;;;;;;6.53;3.67;;;;;;;29.10;100.00;101605.53;5008654;28;20045;-47
2023/06/21 09:39:12;;;;;;;6.75;3.55;;;;;;;29.13;100.00;101610.66;5012458;28;20034;-48
2023/06/21 09:41:39;;;;;;;6.18;3.38;;;;;;;28.72;100.00;101550.50;5008848;28;20136;-49
2023/06/21 09:44:04;;;;;;;5.38;3.15;;;;;;;28.88;100.00;101568.84;5013457;28;20033;-48
2023/06/21 09:46:30;;;;;;;4.97;3.58;;;;;;;29.42;100.00;101620.34;5012092;28;20049;-47
2023/06/21 09:49:08;;;;;;;3.25;2.85;;;;;;;29.37;100.00;101624.53;5008552;28;20119;-46
2023/06/21 09:51:36;;;;;;;4.03;3.03;;;;;;;29.29;100.00;101551.22;5012672;28;20037;-48
2023/06/21 09:54:04;;;;;;;6.05;2.90;;;;;;;29.74;100.00;101622.56;4995748;28;20032;-50
2023/06/21 09:56:32;;;;;;;4.68;2.47;;;;;;;30.04;100.00;101618.63;5012861;28;20037;-48
2023/06/21 09:58:57;;;;;;;7.70;2.80;;;;;;;29.62;100.00;101621.09;5013107;28;20045;-47
2023/06/21 10:01:24;;;;;;;3.70;2.60;;;;;;;29.19;100.00;101582.94;5011974;28;20053;-50
2023/06/21 10:03:49;;;;;;;7.65;3.13;;;;;;;29.55;100.00;101582.88;5007396;28;20041;-51
2023/06/21 10:06:17;;;;;;;7.00;3.60;;;;;;;29.75;100.00;101586.25;4995791;28;20038;-49
2023/06/21 10:08:43;;;;;;;5.65;2.55;;;;;;;30.28;100.00;101648.69;4979007;28;20119;-48
2023/06/21 10:11:09;;;;;;;5.63;3.33;;;;;;;29.82;100.00;101594.69;5012665;28;20050;-49
2023/06/21 10:13:37;;;;;;;3.90;2.40;;;;;;;29.92;100.00;101641.56;4995195;28;20033;-48
2023/06/21 10:16:03;;;;;;;5.78;2.63;;;;;;;30.29;100.00;101597.94;5012662;28;20030;-47
2023/06/21 10:18:29;;;;;;;2.88;2.50;;;;;;;30.93;100.00;101662.75;5006250;28;20080;-51
2023/06/21 10:21:03;;;;;;;4.60;2.72;;;;;;;30.64;100.00;101647.66;5012555;28;20030;-50
2023/06/21 10:23:31;;;;;;;3.70;2.50;;;;;;;30.69;100.00;101628.13;4995238;28;20041;-53
2023/06/21 10:26:00;;;;;;;5.47;2.17;;;;;;;30.76;100.00;101606.59;4995278;28;20393;-49
2023/06/21 10:28:30;;;;;;;4.00;2.40;;;;;;;31.31;100.00;101673.19;4995094;28;20488;-53
2023/06/21 10:30:58;;;;;;;6.93;2.70;;;;;;;31.23;100.00;101673.16;5011692;28;20037;-52
2023/06/21 10:33:26;;;;;;;4.03;2.80;;;;;;;31.11;100.00;101672.59;5006490;28;20293;-49
2023/06/21 10:35:53;;;;;;;5.10;2.70;;;;;;;31.02;100.00;101676.28;5007832;28;20045;-51
2023/06/21 10:38:36;;;;;;;4.65;3.00;;;;;;;31.18;100.00;101661.88;4993077;28;20027;-53
2023/06/21 10:41:04;;;;;;;5.20;3.03;;;;;;;31.27;100.00;101622.81;4993033;28;20053;-51
2023/06/21 10:43:29;;;;;;;4.55;2.50;;;;;;;30.90;100.00;101616.88;4991646;28;20041;-54
2023/06/21 10:45:56;;;;;;;3.42;2.10;;;;;;;30.93;100.00;101660.94;4991105;28;20121;-52
2023/06/21 10:48:22;;;;;;;5.03;2.20;;;;;;;30.73;100.00;101621.38;4991193;28;20027;-49
2023/06/21 10:50:48;;;;;;;4.63;2.03;;;;;;;30.70;100.00;101653.44;4990301;28;20097;-50
2023/06/21 10:53:17;;;;;;;3.83;2.45;;;;;;;30.46;100.00;101638.69;4992979;28;20038;-50
2023/06/21 10:55:42;;;;;;;5.45;2.65;;;;;;;30.28;100.00;101621.53;4991373;28;20470;-48
2023/06/21 10:58:08;;;;;;;5.45;2.22;;;;;;;30.69;100.00;101636.28;4992314;28;20042;-52
2023/06/21 11:00:34;;;;;;;3.75;2.58;;;;;;;30.63;100.00;101636.91;4990388;28;20034;-53
2023/06/21 11:02:59;;;;;;;4.18;3.05;;;;;;;30.63;100.00;101640.50;4991156;28;20034;-51
2023/06/21 11:05:25;;;;;;;3.80;2.47;;;;;;;31.45;100.00;101688.88;4991808;28;20034;-51
2023/06/21 11:08:09;;;;;;;1.98;1.75;;;;;;;31.83;100.00;101703.81;4992625;28;20124;-48